Time;durP1;ratioP1;P1;durP2;ratioP2;P2;SDS_P1;SDS_P2;PMS_P1;PMS_P2;Temp;Humidity;BMP_temperature;BMP_pressure;BME280_temperature;BME280_humidity;BME280_pressure;Samples;Min_cycle;Max_cycle;Signal;HPM_P1;HPM_P2
2021/03/11 00:02:19;;;;;;;162.47;60.83;;;;;;;-5.76;60.13;99462.17;4163543;84;21156;-82
2021/03/11 00:08:21;;;;;;;151.63;53.93;;;;;;;-5.72;60.82;99453.92;4159547;84;21365;-85
2021/03/11 00:14:23;;;;;;;147.27;51.67;;;;;;;-5.90;61.09;99436.52;4146685;84;21243;-81
2021/03/11 00:20:28;;;;;;;136.53;46.93;;;;;;;-6.01;61.13;99421.52;4147240;84;21209;-81
2021/03/11 00:26:33;;;;;;;123.43;43.93;;;;;;;-6.01;62.22;99420.18;4146286;84;21246;-85
2021/03/11 00:32:35;;;;;;;128.68;45.43;;;;;;;-6.15;61.31;99401.70;4131923;84;21184;-82
2021/03/11 00:38:36;;;;;;;121.17;44.17;;;;;;;-6.20;61.71;99398.22;4144130;84;21201;-83
2021/03/11 00:44:38;;;;;;;127.83;44.37;;;;;;;-6.32;61.83;99388.26;4146756;84;21649;-82
2021/03/11 00:50:40;;;;;;;140.37;47.17;;;;;;;-6.31;62.34;99393.33;4131968;84;21266;-81
2021/03/11 00:56:42;;;;;;;146.80;48.93;;;;;;;-6.34;62.00;99380.52;4138102;84;21399;-82
2021/03/11 01:02:44;;;;;;;154.07;49.30;;;;;;;-6.45;62.35;99380.17;4126538;84;21188;-82
2021/03/11 01:08:46;;;;;;;132.23;49.27;;;;;;;-6.58;62.45;99377.97;4131824;84;21482;-82
2021/03/11 01:14:48;;;;;;;122.80;44.07;;;;;;;-6.65;63.07;99370.70;4144761;84;21220;-82
2021/03/11 01:20:50;;;;;;;122.57;44.77;;;;;;;-6.54;63.50;99375.87;4122190;84;21169;-81
2021/03/11 01:26:51;;;;;;;117.90;42.27;;;;;;;-6.65;62.54;99372.85;4149343;84;22131;-81
2021/03/11 01:32:53;;;;;;;117.73;43.60;;;;;;;-6.86;63.00;99367.63;4155073;84;21223;-81
2021/03/11 01:38:55;;;;;;;107.73;41.17;;;;;;;-6.84;63.59;99372.14;4161435;84;21203;-82
2021/03/11 01:44:57;;;;;;;116.80;43.27;;;;;;;-6.74;63.16;99365.06;4170086;84;21192;-81
2021/03/11 01:50:58;;;;;;;110.43;40.33;;;;;;;-6.78;64.39;99342.66;4151052;84;21280;-82
2021/03/11 01:57:01;;;;;;;109.43;39.83;;;;;;;-6.97;63.33;99334.77;4157720;84;21187;-81
2021/03/11 02:03:04;;;;;;;128.43;44.43;;;;;;;-6.85;64.78;99339.42;4169862;84;21774;-81
2021/03/11 02:09:06;;;;;;;128.33;45.97;;;;;;;-6.82;63.90;99332.77;4162963;84;21226;-81
2021/03/11 02:15:29;;;;;;;136.30;50.40;;;;;;;-7.06;64.36;99312.90;4144681;84;21208;-81
2021/03/11 02:21:43;;;;;;;137.57;45.93;;;;;;;-7.05;64.34;99315.30;4129617;84;21766;-82
2021/03/11 02:28:14;;;;;;;144.00;51.57;;;;;;;-7.06;65.33;99310.23;4118502;84;21232;-82
2021/03/11 02:34:22;;;;;;;123.90;44.33;;;;;;;-7.14;64.90;99295.52;4134821;84;21260;-81
2021/03/11 02:40:28;;;;;;;119.50;41.80;;;;;;;-7.21;65.02;99296.27;4139827;84;21707;-82
2021/03/11 02:46:30;;;;;;;116.93;42.57;;;;;;;-7.39;65.13;99275.34;4141487;84;21205;-81
2021/03/11 02:52:34;;;;;;;118.27;45.83;;;;;;;-7.33;65.64;99281.53;4125928;84;22597;-81
2021/03/11 02:58:39;;;;;;;127.47;45.63;;;;;;;-7.34;65.21;99268.75;4140056;84;21240;-82
2021/03/11 03:04:48;;;;;;;122.10;46.53;;;;;;;-7.44;65.75;99244.73;4138126;84;21173;-81
2021/03/11 03:10:53;;;;;;;112.63;45.90;;;;;;;-7.45;65.77;99238.31;4151657;83;29700;-81
2021/03/11 03:16:55;;;;;;;106.77;36.27;;;;;;;-7.44;66.33;99234.62;4163482;84;21252;-82
2021/03/11 03:23:00;;;;;;;124.53;47.87;;;;;;;-7.35;66.50;99247.20;4162176;84;21176;-81
2021/03/11 03:29:03;;;;;;;145.47;51.25;;;;;;;-7.35;66.04;99244.55;4161342;84;21703;-83
2021/03/11 03:35:08;;;;;;;147.07;51.37;;;;;;;-7.42;65.95;99231.97;4162989;84;21211;-84
2021/03/11 03:41:11;;;;;;;140.17;50.27;;;;;;;-7.44;66.25;99226.64;4167656;83;21251;-82
2021/03/11 03:47:14;;;;;;;158.67;56.47;;;;;;;-7.35;66.63;99213.96;4178965;83;21228;-82
2021/03/11 03:53:23;;;;;;;136.07;49.57;;;;;;;-7.36;66.10;99189.73;4152206;84;21243;-81
2021/03/11 03:59:33;;;;;;;140.60;51.90;;;;;;;-7.36;66.65;99200.37;4172613;83;21349;-81
2021/03/11 04:05:35;;;;;;;140.33;50.40;;;;;;;-7.18;66.70;99205.31;4158696;83;21208;-81
2021/03/11 04:11:38;;;;;;;151.27;51.33;;;;;;;-7.25;66.66;99199.94;4149754;84;21776;-82
2021/03/11 04:17:43;;;;;;;162.57;51.97;;;;;;;-7.29;66.88;99202.81;4135318;85;21315;-82
2021/03/11 04:23:46;;;;;;;151.22;52.05;;;;;;;-7.20;67.46;99211.41;4136219;85;21201;-81
2021/03/11 04:29:50;;;;;;;138.53;48.37;;;;;;;-7.08;67.34;99200.04;4130473;84;21197;-81
2021/03/11 04:35:53;;;;;;;137.53;49.77;;;;;;;-6.96;67.38;99207.84;4132072;85;21352;-83
2021/03/11 04:41:54;;;;;;;136.17;49.60;;;;;;;-7.01;67.52;99210.47;4132115;85;21181;-81
2021/03/11 04:47:57;;;;;;;139.80;49.53;;;;;;;-7.25;66.98;99202.60;4139238;85;21194;-82
2021/03/11 04:53:59;;;;;;;132.60;49.40;;;;;;;-7.42;67.07;99178.00;4135656;85;22200;-82
2021/03/11 05:00:05;;;;;;;127.07;47.07;;;;;;;-7.55;67.52;99169.93;4139291;85;21220;-81
2021/03/11 05:06:06;;;;;;;139.77;49.57;;;;;;;-7.52;67.54;99168.61;4142262;85;21812;-82
2021/03/11 05:12:09;;;;;;;113.90;44.70;;;;;;;-7.47;67.85;99163.33;4131674;85;21164;-82
2021/03/11 05:18:11;;;;;;;140.23;49.47;;;;;;;-7.36;67.79;99167.67;4130341;85;21203;-81
2021/03/11 05:24:13;;;;;;;132.90;48.90;;;;;;;-7.31;68.48;99162.40;4131013;85;21214;-82
2021/03/11 05:30:16;;;;;;;125.90;48.17;;;;;;;-7.28;68.25;99159.22;4118598;85;21337;-81
2021/03/11 05:36:18;;;;;;;128.73;46.03;;;;;;;-7.16;68.30;99143.86;4117523;85;21181;-84
2021/03/11 05:42:20;;;;;;;118.87;44.43;;;;;;;-7.05;68.65;99138.88;4121155;85;21685;-82
2021/03/11 05:48:25;;;;;;;105.90;40.97;;;;;;;-6.88;68.66;99127.52;4122964;85;21213;-82
2021/03/11 05:54:32;;;;;;;124.30;45.03;;;;;;;-6.72;68.98;99125.98;4129022;85;21319;-81
2021/03/11 06:00:35;;;;;;;125.77;44.60;;;;;;;-6.35;68.92;99119.72;4104889;85;21343;-82
2021/03/11 06:06:36;;;;;;;113.80;41.27;;;;;;;-6.23;68.89;99110.98;4123723;85;21887;-81
2021/03/11 06:12:38;;;;;;;128.93;43.93;;;;;;;-5.91;69.03;99108.35;4124413;85;21707;-83
2021/03/11 06:18:41;;;;;;;133.87;44.83;;;;;;;-5.42;68.84;99100.58;4122633;85;21229;-82
2021/03/11 06:24:44;;;;;;;122.17;42.13;;;;;;;-4.94;68.49;99090.59;4125192;85;21336;-83
2021/03/11 06:30:46;;;;;;;104.13;39.13;;;;;;;-4.35;69.32;99082.59;4126127;85;21382;-83
2021/03/11 06:36:49;;;;;;;110.33;45.37;;;;;;;-3.49;69.05;99079.52;4126141;85;21343;-82
2021/03/11 06:42:54;;;;;;;112.73;44.50;;;;;;;-2.89;68.63;99072.74;4121924;85;21177;-82
2021/03/11 06:49:08;;;;;;;134.80;49.93;;;;;;;-2.37;67.88;99051.98;4129189;85;21181;-83
2021/03/11 06:55:10;;;;;;;133.57;50.57;;;;;;;-2.00;67.64;99054.65;4126672;85;21178;-84
2021/03/11 07:01:12;;;;;;;123.63;47.47;;;;;;;-1.47;67.20;99047.06;4124965;85;21232;-85
2021/03/11 07:07:21;;;;;;;88.57;36.90;;;;;;;-1.08;67.09;99041.27;4142911;84;21673;-85
2021/03/11 07:13:24;;;;;;;84.37;34.77;;;;;;;-0.96;66.31;99034.30;4156094;83;21536;-85
2021/03/11 07:19:26;;;;;;;83.10;34.70;;;;;;;-0.76;66.00;99027.71;4149588;84;21221;-85
2021/03/11 07:25:40;;;;;;;77.70;34.90;;;;;;;-0.38;65.79;99022.33;4147986;84;21193;-86
2021/03/11 07:31:43;;;;;;;87.17;34.07;;;;;;;-0.09;65.46;99015.45;4122393;85;21197;-84
2021/03/11 07:37:49;;;;;;;79.13;32.17;;;;;;;0.21;64.11;99010.44;4144392;84;21203;-84
2021/03/11 07:43:51;;;;;;;79.22;32.65;;;;;;;0.64;64.00;99008.80;4157457;84;21200;-84
2021/03/11 07:49:55;;;;;;;68.07;30.57;;;;;;;1.03;61.86;98979.16;4149871;84;21821;-84
2021/03/11 07:55:57;;;;;;;67.05;31.23;;;;;;;1.03;61.86;98979.16;4148138;84;21594;-85
2021/03/11 08:02:08;;;;;;;71.22;31.60;;;;;;;1.49;61.68;98992.34;4148639;84;21680;-83
2021/03/11 08:08:25;;;;;;;65.65;31.02;;;;;;;1.86;61.00;99001.75;4147731;84;21213;-84
2021/03/11 08:14:31;;;;;;;63.00;29.82;;;;;;;2.11;60.61;99001.48;4102154;84;22565;-83
2021/03/11 08:20:37;;;;;;;69.22;29.92;;;;;;;2.52;59.85;98988.23;4069161;86;21231;-86
2021/03/11 08:26:43;;;;;;;68.87;29.43;;;;;;;2.81;59.12;98981.52;4142096;85;21916;-84
2021/03/11 08:32:51;;;;;;;59.25;28.85;;;;;;;3.02;59.87;98960.77;4137990;85;21217;-85
2021/03/11 08:38:53;;;;;;;53.20;26.70;;;;;;;3.04;59.24;98946.34;4139995;85;21174;-86
2021/03/11 08:44:55;;;;;;;56.33;26.75;;;;;;;3.32;58.44;98945.31;4127474;85;21668;-87
2021/03/11 08:50:58;;;;;;;52.98;25.10;;;;;;;3.61;57.59;98933.08;4134841;85;21170;-88
2021/03/11 08:57:00;;;;;;;48.15;24.35;;;;;;;4.20;58.18;98916.28;4134959;85;21319;-88
2021/03/11 09:03:38;;;;;;;53.35;25.43;;;;;;;4.55;57.03;98906.65;4133130;85;21256;-88
2021/03/11 09:09:51;;;;;;;46.45;22.45;;;;;;;4.78;56.45;98900.20;4136428;85;21185;-88
2021/03/11 09:15:53;;;;;;;40.88;17.27;;;;;;;4.68;55.07;98874.33;4128115;85;21170;-88
2021/03/11 09:21:55;;;;;;;26.12;15.68;;;;;;;4.59;54.21;98871.50;4159763;84;21243;-88
2021/03/11 09:28:04;;;;;;;32.10;16.30;;;;;;;4.73;53.62;98863.81;4150239;84;21771;-88
2021/03/11 09:34:06;;;;;;;32.90;14.55;;;;;;;5.02;48.70;98862.23;4169215;84;22086;-90
2021/03/11 09:40:10;;;;;;;29.45;15.90;;;;;;;4.93;45.26;98847.20;4149314;84;21755;-89
2021/03/11 09:52:55;;;;;;;28.57;15.88;;;;;;;4.70;40.51;98834.11;4554871;76;22714;-82
2021/03/11 09:59:00;;;;;;;31.42;15.85;;;;;;;4.73;41.94;98813.65;4312779;81;21146;-81
2021/03/11 10:05:01;;;;;;;27.77;13.68;;;;;;;5.25;41.16;98797.37;4301161;81;21170;-83
2021/03/11 10:11:12;;;;;;;26.95;14.10;;;;;;;5.37;42.81;98770.20;4307734;81;21182;-86
2021/03/11 10:17:19;;;;;;;23.27;12.15;;;;;;;5.68;43.00;98756.70;4318289;80;21202;-84
2021/03/11 10:23:21;;;;;;;24.67;12.53;;;;;;;5.80;39.11;98737.61;4237435;81;33935;-84
2021/03/11 10:29:43;;;;;;;21.17;12.93;;;;;;;6.00;37.58;98720.28;4151124;83;42468;-86
2021/03/11 10:35:46;;;;;;;24.57;13.05;;;;;;;6.09;38.35;98691.80;3962058;88;21215;-87
2021/03/11 10:42:11;;;;;;;22.85;12.82;;;;;;;6.28;42.05;98685.06;3954459;88;21392;-87
2021/03/11 10:48:13;;;;;;;23.47;12.80;;;;;;;6.12;37.90;98680.22;3964065;88;21365;-88
2021/03/11 10:54:32;;;;;;;25.50;13.55;;;;;;;5.97;40.56;98669.37;3982847;87;21426;-88
2021/03/11 11:07:21;;;;;;;23.42;12.90;;;;;;;6.24;40.22;98640.72;3866843;89;21434;-87
2021/03/11 11:13:23;;;;;;;24.05;13.18;;;;;;;6.23;40.04;98628.84;3736458;92;21268;-89
2021/03/11 11:19:30;;;;;;;24.77;12.73;;;;;;;6.33;40.85;98611.95;3747515;93;21376;-89
2021/03/11 11:25:31;;;;;;;;;;;;;;;6.49;41.11;98603.18;3842387;86;143283;-89
2021/03/11 11:31:33;;;;;;;24.43;12.13;;;;;;;6.51;38.96;98588.66;4105997;85;20314;-89
2021/03/11 11:37:34;;;;;;;21.77;12.13;;;;;;;6.59;40.22;98579.50;4152551;84;21203;-89
2021/03/11 11:43:36;;;;;;;22.32;11.68;;;;;;;6.71;39.69;98571.75;4154713;84;21651;-89
2021/03/11 11:49:50;;;;;;;26.42;13.85;;;;;;;6.80;39.54;98566.30;4154046;83;21243;-88
2021/03/11 11:56:07;;;;;;;22.25;12.47;;;;;;;6.85;39.48;98558.42;4151562;83;21176;-89
2021/03/11 12:02:15;;;;;;;19.77;11.40;;;;;;;6.86;37.39;98542.33;4120490;83;21646;-88
2021/03/11 12:08:17;;;;;;;27.58;12.23;;;;;;;6.88;39.18;98538.65;4142307;83;21188;-87
2021/03/11 12:14:21;;;;;;;23.87;12.78;;;;;;;6.93;39.22;98516.02;4152833;83;21160;-88
2021/03/11 12:20:22;;;;;;;18.82;10.32;;;;;;;6.94;39.10;98505.94;4147579;83;21354;-88
2021/03/11 12:26:26;;;;;;;15.18;9.05;;;;;;;6.80;38.14;98494.21;4142430;83;21854;-89
2021/03/11 12:32:28;;;;;;;19.85;9.33;;;;;;;6.68;37.98;98496.31;4176009;83;21210;-88
2021/03/11 12:38:29;;;;;;;14.55;8.38;;;;;;;6.46;38.14;98515.53;4198623;83;21208;-88
2021/03/11 12:51:11;;;;;;;16.97;9.13;;;;;;;6.18;41.10;98534.78;4446774;79;22636;-88
2021/03/11 12:57:13;;;;;;;13.03;7.40;;;;;;;5.66;43.58;98528.14;4385715;80;21547;-87
2021/03/11 13:03:14;;;;;;;14.65;7.22;;;;;;;5.48;44.99;98500.58;4393722;80;21196;-89
2021/03/11 13:09:16;;;;;;;13.35;7.55;;;;;;;5.37;49.64;98487.33;4272281;81;21189;-88
2021/03/11 13:15:22;;;;;;;19.15;9.50;;;;;;;5.09;48.38;98479.88;4254060;83;21248;-87
2021/03/11 13:21:24;;;;;;;14.43;9.00;;;;;;;5.13;49.74;98476.70;4243678;83;21756;-88
2021/03/11 13:27:26;;;;;;;29.05;12.35;;;;;;;5.18;48.88;98468.86;4247228;83;21225;-88
2021/03/11 13:33:28;;;;;;;27.67;12.73;;;;;;;5.02;51.80;98485.70;4241122;83;21722;-88
2021/03/11 13:39:29;;;;;;;23.02;10.95;;;;;;;4.95;54.60;98491.73;4241779;83;21240;-88
2021/03/11 13:45:31;;;;;;;21.12;11.93;;;;;;;4.57;56.47;98465.20;4252212;83;21782;-87
2021/03/11 13:51:33;;;;;;;21.97;12.78;;;;;;;4.32;54.39;98440.73;4214653;83;21781;-87
2021/03/11 13:57:35;;;;;;;26.60;11.95;;;;;;;4.39;56.40;98407.61;4210519;83;21342;-88
2021/03/11 14:03:37;;;;;;;25.85;14.20;;;;;;;4.25;55.79;98383.66;4215649;83;21177;-88
2021/03/11 14:09:39;;;;;;;24.65;12.43;;;;;;;4.26;56.21;98362.20;4210199;83;21774;-88
2021/03/11 14:15:40;;;;;;;25.97;14.55;;;;;;;4.17;56.07;98346.69;4207017;83;21214;-87
2021/03/11 14:21:42;;;;;;;41.00;18.95;;;;;;;4.19;57.47;98326.02;4205547;83;21212;-89
2021/03/11 14:27:44;;;;;;;25.60;14.25;;;;;;;4.05;57.03;98334.58;4212479;83;21204;-87
2021/03/11 14:33:46;;;;;;;25.23;13.53;;;;;;;3.99;57.11;98321.64;4217377;83;21204;-88
2021/03/11 14:39:48;;;;;;;31.52;15.20;;;;;;;3.95;57.29;98299.08;4208790;83;21211;-89
2021/03/11 14:45:50;;;;;;;24.75;14.58;;;;;;;4.01;57.42;98276.05;4205409;82;21214;-87
2021/03/11 14:51:54;;;;;;;29.70;17.85;;;;;;;4.02;57.57;98255.38;4194943;83;21897;-87
2021/03/11 14:57:55;;;;;;;27.55;15.32;;;;;;;4.10;57.90;98257.69;4203150;83;21198;-88
2021/03/11 15:03:57;;;;;;;29.05;16.00;;;;;;;4.00;59.20;98234.63;4216119;83;21350;-89
2021/03/11 15:09:59;;;;;;;40.52;21.73;;;;;;;3.90;59.22;98214.06;4200495;83;21673;-88
2021/03/11 15:16:01;;;;;;;44.27;25.20;;;;;;;3.84;59.45;98207.31;4206512;83;21713;-88
2021/03/11 15:22:11;;;;;;;73.67;30.70;;;;;;;3.80;59.18;98174.77;4213351;83;21199;-87
2021/03/11 15:28:13;;;;;;;291.17;109.90;;;;;;;3.84;60.03;98154.52;4261743;81;21203;-88
2021/03/11 15:34:16;;;;;;;60.90;25.70;;;;;;;3.81;59.86;98148.45;4261545;81;21899;-88
2021/03/11 15:40:19;;;;;;;497.33;162.85;;;;;;;3.83;61.10;98134.80;4268268;82;21358;-88
2021/03/11 15:46:20;;;;;;;131.40;44.15;;;;;;;3.81;60.33;98122.73;4270361;81;21185;-89
2021/03/11 15:52:23;;;;;;;285.02;85.75;;;;;;;3.84;59.97;98139.63;4260474;81;21768;-87
2021/03/11 15:58:25;;;;;;;82.97;31.93;;;;;;;3.83;59.99;98144.84;4307812;81;21333;-89
2021/03/11 16:04:27;;;;;;;214.80;84.25;;;;;;;3.81;59.88;98151.16;4280341;82;21177;-88
2021/03/11 16:10:29;;;;;;;249.18;93.47;;;;;;;3.82;60.04;98139.22;4255518;81;21204;-87
2021/03/11 16:16:30;;;;;;;57.67;27.82;;;;;;;3.82;60.09;98139.22;4301954;81;21215;-88
2021/03/11 16:22:32;;;;;;;122.37;50.25;;;;;;;3.76;60.07;98146.80;4290409;82;21180;-88
2021/03/11 16:28:34;;;;;;;88.00;38.67;;;;;;;3.73;60.26;98148.09;4268960;82;21605;-87
2021/03/11 16:34:40;;;;;;;46.30;24.90;;;;;;;3.65;60.67;98136.28;4270569;82;21575;-88
2021/03/11 16:40:41;;;;;;;132.10;52.70;;;;;;;3.57;61.12;98129.72;4315477;81;21193;-89
2021/03/11 16:46:44;;;;;;;113.12;47.38;;;;;;;3.50;61.58;98126.82;4313741;81;21538;-88
2021/03/11 16:52:47;;;;;;;48.17;25.90;;;;;;;3.33;62.69;98120.41;4320534;81;21353;-87
2021/03/11 16:58:50;;;;;;;43.05;21.62;;;;;;;3.23;62.86;98094.66;4317367;81;21212;-87
2021/03/11 17:04:52;;;;;;;39.05;20.92;;;;;;;3.21;65.00;98082.07;4309222;81;21210;-88
2021/03/11 17:10:54;;;;;;;33.88;17.73;;;;;;;3.26;65.14;98078.31;4318065;81;21217;-88
2021/03/11 17:16:55;;;;;;;35.48;16.37;;;;;;;3.43;66.56;98072.55;4315814;81;21226;-87
2021/03/11 17:22:57;;;;;;;39.48;18.85;;;;;;;3.59;66.88;98065.98;4312019;81;21202;-88
2021/03/11 17:28:58;;;;;;;38.08;19.45;;;;;;;3.78;67.08;98009.19;4306998;81;21238;-90
2021/03/11 17:35:01;;;;;;;40.60;18.92;;;;;;;3.92;66.89;97915.28;4309044;81;21166;-89
2021/03/11 17:41:03;;;;;;;35.85;18.35;;;;;;;3.78;65.86;98028.14;4312047;81;21174;-87
2021/03/11 17:47:06;;;;;;;32.03;18.00;;;;;;;3.67;65.94;98039.86;4313324;81;21558;-87
2021/03/11 17:53:08;;;;;;;27.62;16.67;;;;;;;3.62;65.79;98043.63;4091159;85;33586;-88
2021/03/11 17:59:09;;;;;;;30.45;15.15;;;;;;;3.70;66.62;98049.41;4012694;85;9999733;-88
2021/03/11 18:05:11;;;;;;;50.50;21.07;;;;;;;3.72;68.58;98028.77;4131446;85;21261;-87
2021/03/11 18:11:14;;;;;;;31.12;15.25;;;;;;;3.83;68.62;98017.60;4133826;85;21244;-88
2021/03/11 18:17:15;;;;;;;29.27;14.90;;;;;;;3.90;68.24;98017.77;4123251;85;21669;-88
2021/03/11 18:23:17;;;;;;;45.50;20.90;;;;;;;3.99;69.51;98015.08;4121804;85;21235;-88
2021/03/11 18:29:18;;;;;;;31.10;15.03;;;;;;;4.12;69.76;98020.55;4118883;85;21396;-88
2021/03/11 18:35:22;;;;;;;35.45;16.97;;;;;;;4.10;69.56;97999.03;4077382;86;21225;-88
2021/03/11 18:41:23;;;;;;;40.33;16.95;;;;;;;4.07;69.14;97997.04;4049571;87;21279;-88
2021/03/11 18:47:25;;;;;;;34.27;16.57;;;;;;;4.01;69.25;97992.46;4088767;85;21255;-88
2021/03/11 18:59:52;;;;;;;33.08;15.68;;;;;;;4.02;69.71;97986.48;4455871;77;23026;-88
2021/03/11 19:05:55;;;;;;;32.48;15.93;;;;;;;4.01;69.55;97975.45;4405893;79;21213;-87
2021/03/11 19:18:55;;;;;;;31.73;14.98;;;;;;;4.10;69.41;97963.23;4407210;79;21124;-88
2021/03/11 19:25:27;;;;;;;36.40;17.17;;;;;;;4.22;69.46;97968.52;4404996;79;21715;-88
2021/03/11 19:31:28;;;;;;;33.15;16.35;;;;;;;4.29;69.20;97964.58;4402040;79;22101;-88
2021/03/11 19:37:37;;;;;;;43.68;21.30;;;;;;;4.30;69.99;97939.08;4407362;79;21508;-88
2021/03/11 19:44:02;;;;;;;34.70;15.95;;;;;;;4.37;70.13;97922.17;4392038;79;22472;-89
2021/03/11 19:50:19;;;;;;;29.85;14.85;;;;;;;4.44;70.73;97921.72;4404041;79;21576;-88
2021/03/11 19:56:27;;;;;;;27.73;14.58;;;;;;;4.60;70.42;97892.55;4393491;79;21346;-88
2021/03/11 20:02:28;;;;;;;23.83;13.03;;;;;;;4.83;69.81;97861.37;4305037;80;21161;-87
2021/03/11 20:08:30;;;;;;;20.48;11.30;;;;;;;4.90;69.28;97843.86;4297558;81;21195;-88
2021/03/11 20:14:32;;;;;;;17.95;10.55;;;;;;;4.75;69.02;97852.34;4317088;80;21328;-88
2021/03/11 20:20:34;;;;;;;18.92;10.80;;;;;;;4.72;69.22;97819.75;4181118;80;9999961;-87
2021/03/11 20:26:36;;;;;;;22.35;11.80;;;;;;;4.84;69.00;97818.18;4309105;80;21994;-89
2021/03/11 20:32:38;;;;;;;21.80;10.32;;;;;;;4.89;69.01;97805.67;4284176;80;21225;-88
2021/03/11 20:38:59;;;;;;;16.12;9.95;;;;;;;4.78;69.39;97810.95;4300808;80;21165;-88
2021/03/11 20:45:00;;;;;;;27.15;14.05;;;;;;;4.81;68.98;97798.58;4293773;80;22376;-89
2021/03/11 20:51:04;;;;;;;21.73;11.45;;;;;;;4.77;68.99;97777.42;4290758;80;21155;-88
2021/03/11 20:57:29;;;;;;;19.42;10.70;;;;;;;4.98;68.82;97787.20;4318628;80;21693;-88
2021/03/11 21:03:30;;;;;;;19.32;10.98;;;;;;;5.03;68.65;97759.00;4319314;80;21209;-89
2021/03/11 21:09:32;;;;;;;21.35;11.80;;;;;;;5.13;68.16;97725.22;4318951;80;21235;-88
2021/03/11 21:15:34;;;;;;;19.23;11.35;;;;;;;5.14;68.37;97728.13;4317508;80;21240;-89
2021/03/11 21:28:38;;;;;;;26.05;12.82;;;;;;;4.79;68.29;97735.23;4293177;80;21172;-89
2021/03/11 21:34:40;;;;;;;26.27;13.70;;;;;;;4.65;68.45;97730.21;4325204;79;21354;-88
2021/03/11 21:41:01;;;;;;;30.90;16.82;;;;;;;4.65;68.50;97715.30;4301893;80;21216;-89
2021/03/11 21:47:03;;;;;;;43.55;22.07;;;;;;;4.61;68.79;97692.20;4304494;80;21654;-88
2021/03/11 21:53:13;;;;;;;38.05;18.10;;;;;;;4.68;68.73;97706.44;4311785;80;21315;-88
2021/03/11 21:59:14;;;;;;;41.58;21.17;;;;;;;4.70;68.83;97687.29;4287064;79;21649;-89
2021/03/11 22:05:17;;;;;;;31.87;18.80;;;;;;;4.68;69.12;97711.27;4294919;80;21212;-88
2021/03/11 22:11:19;;;;;;;37.55;19.90;;;;;;;4.69;69.73;97698.50;4306111;79;21182;-89
